Aviation Digital Data Service (ADDS)

Output produced by METARs form (1925 UTC 19 July 2018)
found at http://www.aviationweather.gov/adds/metars/
 
KBVI 191747Z AUTO 18004KT 10SM CLR 28/13 A3010
KBVI 191647Z AUTO 07003KT 10SM CLR 26/11 A3012
KBVI 191447Z AUTO 04004KT 10SM CLR 24/13 A3014
KBVI 191347Z AUTO 00000KT 10SM CLR 22/14 A3014
KBVI 191247Z AUTO 00000KT 10SM CLR 19/13 A3014
KBVI 191147Z AUTO 11003KT 10SM CLR 17/12 A3012
KBVI 191047Z AUTO 00000KT 10SM CLR 15/12 A3011
KBVI 190047Z AUTO 00000KT 10SM CLR 21/13 A3005 RMK LAST
KBVI 182347Z AUTO 00000KT 10SM CLR 24/12 A3004
KBVI 182047Z AUTO 00000KT 10SM SCT055 26/11 A3006
KBVI 181947Z AUTO 00000KT 10SM BKN055 25/11 A3007